South Bend, Indiana
Current Conditions -  °F | °C
As of 12:54 PM on Sunday 25 Jan 2015 (Local Time) from KSBN Reporting Station
Light Snow Light Snow  
Wind Chill: -7°   Ceiling: 800
Heat Index: -1°   Visibility: 1.2mi
Dew Point: -3°   Wind: 13mph
Humidity: 85%   Direction: 70°ENE
Pressure: 29.78"   Gusts: 18mph
Location:  41.68°N, 86.25°W
Report Text: KSBN 251754Z 07011G16KT 1 1/4SM -SN BR BKN008 BKN014 OVC022 M01/M03 A2978 RMK AO2 SLP091 P0000 60002 T10111033 10017 21011 51008
Loading
Personal Weather Stations






























Interactive Weather Map New forecast layout! Learn more

10-Day Weather Forecast

Advertisements
Track Severe Weather on mobile